Latest METARs, TAFs and NOTAMs for TTPP


---------------------------------------------------------------------------
	(OBSERVATIONS)
TTPP 240200Z 00000KT 9999 NSC 27/17 Q1012 NOSIG=
TTPP 240100Z 00000KT 9999 NSC 27/25 Q1011 NOSIG=
TTPP 240000Z 11003KT 9999 FEW016 28/24 Q1010 NOSIG=
---------------------------------------------------------------------------
	(TERMINAL AREA FORECAST)
TTPP 232200Z 2400/2424 00000KT 9999 FEW020
    BECMG 2412/2414 12010KT=
---------------------------------------------------------------------------
	(NOTAMS)


TTPP A0726/17 INSTRUMENT APPROACH PROCEDURE "NDB RWY 10" NOT
    AVBL. 24 MAY 19:00 2017 UNTIL 24 AUG 23:59 2017 ESTIMATED.
    CREATED: 24 MAY 20:42 2017

TTPP A0727/17 INSTRUMENT APPROACH PROCEDURE "NDB/ILS RWY 10"
    NOT AVBL. 24 MAY 19:30 2017 UNTIL 24 AUG 23:59 2017 ESTIMATED.
    CREATED: 24 MAY 20:42 2017

TTPP A0860/17 GATE S12 CLSD DUE MAINT WORKS. 21 JUN 16:00 2017
    UNTIL 20 SEP 16:00 2017. CREATED: 21 JUN 16:12 2017

TTPP A0862/17 ALL ACFT TO BE TOWED IN AND TOWED OUT OF GATES
    1 AND 2 ON THE SOUTH APRON. 21 JUN 20:56 2017 UNTIL 21 SEP
    20:56 2017. CREATED: 21 JUN 21:30 2017

TTPP A0879/17 MODEL ACFT DISPLAY AT FREDERICK SETTLEMENT WITHIN
    A RADIUS OF 1KM CENTRED ON 103538N0612337W. CTN ADZ. SFC
    - 400FT, SR-SS, 27 JUN 12:40 2017 UNTIL 26 SEP 23:59 2017
    ESTIMATED. CREATED: 27 JUN 12:54 2017

TTPP A1115/17 WIP AT WASA CARONI WATER TREATMENT PLANT 1000M
    SOUTH OF RWY 10/28 CENTRELINE. CRANE TO BE ERECTED NO MORE
    THAN 50M IN HEIGHT. DLY: 1200-2359 AND 0000-0400, 14 AUG
    16:30 2017 UNTIL 28 AUG 04:00 2017. CREATED: 14 AUG 16:32
    2017

TTPP F0016/07 [DEFENSE ENERGY SUPPORT CENTER ADVISORY] FUEL AVAILABILITY
    NOT AVAILABLE: CONTRACTOR PLACED ON QUALITY HOLD DUE TO NONCOMPLIANCE
    OF SAMPLE SUBMISSION. 12 JUL 20:18 2020 UNTIL 01 AUG 21:18
    2020

---------------------------------------------------------------------------